sensor_id;sensor_type;location;lat;lon;timestamp;temperature;humidity
12720;DHT22;6424;48.520;11.228;2024-02-15T00:02:33;8.40;99.90
12720;DHT22;6424;48.520;11.228;2024-02-15T00:05:17;8.40;99.90
12720;DHT22;6424;48.520;11.228;2024-02-15T00:08:02;8.30;99.90
12720;DHT22;6424;48.520;11.228;2024-02-15T00:10:46;8.30;99.90
12720;DHT22;6424;48.520;11.228;2024-02-15T00:13:31;8.30;99.90
12720;DHT22;6424;48.520;11.228;2024-02-15T00:16:17;8.30;99.90
12720;DHT22;6424;48.520;11.228;2024-02-15T00:19:01;8.30;99.90
12720;DHT22;6424;48.520;11.228;2024-02-15T00:21:46;8.30;99.90
12720;DHT22;6424;48.520;11.228;2024-02-15T00:24:30;8.30;99.90
12720;DHT22;6424;48.520;11.228;2024-02-15T00:27:15;8.20;99.90
12720;DHT22;6424;48.520;11.228;2024-02-15T00:29:59;8.20;99.90
12720;DHT22;6424;48.520;11.228;2024-02-15T00:32:44;8.20;99.90
12720;DHT22;6424;48.520;11.228;2024-02-15T00:35:30;8.10;99.90
12720;DHT22;6424;48.520;11.228;2024-02-15T00:38:14;8.10;99.90
12720;DHT22;6424;48.520;11.228;2024-02-15T00:40:58;8.10;99.90
12720;DHT22;6424;48.520;11.228;2024-02-15T00:43:43;8.00;99.90
12720;DHT22;6424;48.520;11.228;2024-02-15T00:46:27;8.00;99.90
12720;DHT22;6424;48.520;11.228;2024-02-15T00:49:13;8.00;99.90
12720;DHT22;6424;48.520;11.228;2024-02-15T00:51:57;8.00;99.90
12720;DHT22;6424;48.520;11.228;2024-02-15T00:54:41;8.00;99.90
12720;DHT22;6424;48.520;11.228;2024-02-15T00:57:25;8.00;99.90
12720;DHT22;6424;48.520;11.228;2024-02-15T01:00:09;8.00;99.90
12720;DHT22;6424;48.520;11.228;2024-02-15T01:02:55;7.90;99.90
12720;DHT22;6424;48.520;11.228;2024-02-15T01:05:40;7.90;99.90
12720;DHT22;6424;48.520;11.228;2024-02-15T01:08:24;8.00;99.90
12720;DHT22;6424;48.520;11.228;2024-02-15T01:11:08;8.00;99.90
12720;DHT22;6424;48.520;11.228;2024-02-15T01:13:54;8.00;99.90
12720;DHT22;6424;48.520;11.228;2024-02-15T01:16:38;8.00;99.90
12720;DHT22;6424;48.520;11.228;2024-02-15T01:19:22;8.00;99.90
12720;DHT22;6424;48.520;11.228;2024-02-15T01:22:06;8.00;99.90
12720;DHT22;6424;48.520;11.228;2024-02-15T01:24:51;8.00;99.90
12720;DHT22;6424;48.520;11.228;2024-02-15T01:27:38;8.00;99.90
12720;DHT22;6424;48.520;11.228;2024-02-15T01:30:23;8.00;99.90
12720;DHT22;6424;48.520;11.228;2024-02-15T01:33:07;8.00;99.90
12720;DHT22;6424;48.520;11.228;2024-02-15T01:35:51;8.00;99.90
12720;DHT22;6424;48.520;11.228;2024-02-15T01:38:36;8.00;99.90
12720;DHT22;6424;48.520;11.228;2024-02-15T01:41:20;8.10;99.90
12720;DHT22;6424;48.520;11.228;2024-02-15T01:44:04;8.10;99.90
12720;DHT22;6424;48.520;11.228;2024-02-15T01:46:50;8.10;99.90
12720;DHT22;6424;48.520;11.228;2024-02-15T01:49:38;8.10;99.90
12720;DHT22;6424;48.520;11.228;2024-02-15T01:52:22;8.00;99.90
12720;DHT22;6424;48.520;11.228;2024-02-15T01:55:07;8.00;99.90
12720;DHT22;6424;48.520;11.228;2024-02-15T01:57:53;8.00;99.90
12720;DHT22;6424;48.520;11.228;2024-02-15T02:00:37;8.00;99.90
12720;DHT22;6424;48.520;11.228;2024-02-15T02:03:23;8.00;99.90
12720;DHT22;6424;48.520;11.228;2024-02-15T02:06:07;8.00;99.90
12720;DHT22;6424;48.520;11.228;2024-02-15T02:08:52;8.00;99.90
12720;DHT22;6424;48.520;11.228;2024-02-15T02:11:39;8.00;99.90
12720;DHT22;6424;48.520;11.228;2024-02-15T02:14:24;8.00;99.90
12720;DHT22;6424;48.520;11.228;2024-02-15T02:17:15;8.00;99.90
12720;DHT22;6424;48.520;11.228;2024-02-15T02:19:59;8.10;99.90
12720;DHT22;6424;48.520;11.228;2024-02-15T02:22:48;8.10;99.90
12720;DHT22;6424;48.520;11.228;2024-02-15T02:25:35;8.10;99.90
12720;DHT22;6424;48.520;11.228;2024-02-15T02:28:19;8.20;99.90
12720;DHT22;6424;48.520;11.228;2024-02-15T02:31:05;8.20;99.90
12720;DHT22;6424;48.520;11.228;2024-02-15T02:33:52;8.20;99.90
12720;DHT22;6424;48.520;11.228;2024-02-15T02:36:37;8.20;99.90
12720;DHT22;6424;48.520;11.228;2024-02-15T02:39:22;8.30;99.90
12720;DHT22;6424;48.520;11.228;2024-02-15T02:42:07;8.30;99.90
12720;DHT22;6424;48.520;11.228;2024-02-15T02:44:52;8.30;99.90
12720;DHT22;6424;48.520;11.228;2024-02-15T02:47:36;8.30;99.90
12720;DHT22;6424;48.520;11.228;2024-02-15T02:50:23;8.30;99.90
12720;DHT22;6424;48.520;11.228;2024-02-15T02:53:07;8.40;99.90
12720;DHT22;6424;48.520;11.228;2024-02-15T02:55:56;8.40;99.90
12720;DHT22;6424;48.520;11.228;2024-02-15T02:58:41;8.40;99.90
12720;DHT22;6424;48.520;11.228;2024-02-15T03:01:26;8.40;99.90
12720;DHT22;6424;48.520;11.228;2024-02-15T03:04:10;8.40;99.90
12720;DHT22;6424;48.520;11.228;2024-02-15T03:06:56;8.40;99.90
12720;DHT22;6424;48.520;11.228;2024-02-15T03:09:42;8.40;99.90
12720;DHT22;6424;48.520;11.228;2024-02-15T03:12:26;8.30;99.90
12720;DHT22;6424;48.520;11.228;2024-02-15T03:15:10;8.30;99.90
12720;DHT22;6424;48.520;11.228;2024-02-15T03:17:55;8.30;99.90
12720;DHT22;6424;48.520;11.228;2024-02-15T03:20:40;8.30;99.90
12720;DHT22;6424;48.520;11.228;2024-02-15T03:23:25;8.30;99.90
12720;DHT22;6424;48.520;11.228;2024-02-15T03:26:09;8.30;99.90
12720;DHT22;6424;48.520;11.228;2024-02-15T03:28:55;8.30;99.90
12720;DHT22;6424;48.520;11.228;2024-02-15T03:31:39;8.30;99.90
12720;DHT22;6424;48.520;11.228;2024-02-15T03:34:24;8.30;99.90
12720;DHT22;6424;48.520;11.228;2024-02-15T03:37:09;8.40;99.90
12720;DHT22;6424;48.520;11.228;2024-02-15T03:39:53;8.40;99.90
12720;DHT22;6424;48.520;11.228;2024-02-15T03:42:38;8.40;99.90
12720;DHT22;6424;48.520;11.228;2024-02-15T03:45:22;8.50;99.90
12720;DHT22;6424;48.520;11.228;2024-02-15T03:48:08;8.40;99.90
12720;DHT22;6424;48.520;11.228;2024-02-15T03:50:54;8.50;99.90
12720;DHT22;6424;48.520;11.228;2024-02-15T03:53:38;8.50;99.90
12720;DHT22;6424;48.520;11.228;2024-02-15T03:56:22;8.50;99.90
12720;DHT22;6424;48.520;11.228;2024-02-15T03:59:06;8.50;99.90
12720;DHT22;6424;48.520;11.228;2024-02-15T04:01:52;8.60;99.90
12720;DHT22;6424;48.520;11.228;2024-02-15T04:04:37;8.50;99.90
12720;DHT22;6424;48.520;11.228;2024-02-15T04:07:22;8.60;99.90
12720;DHT22;6424;48.520;11.228;2024-02-15T04:10:10;8.50;99.90
12720;DHT22;6424;48.520;11.228;2024-02-15T04:12:55;8.60;99.90
12720;DHT22;6424;48.520;11.228;2024-02-15T04:15:42;8.60;99.90
12720;DHT22;6424;48.520;11.228;2024-02-15T04:18:27;8.50;99.90
12720;DHT22;6424;48.520;11.228;2024-02-15T04:21:13;8.50;99.90
12720;DHT22;6424;48.520;11.228;2024-02-15T04:24:01;8.40;99.90
12720;DHT22;6424;48.520;11.228;2024-02-15T04:26:45;8.40;99.90
12720;DHT22;6424;48.520;11.228;2024-02-15T04:29:32;8.30;99.90
12720;DHT22;6424;48.520;11.228;2024-02-15T04:32:16;8.20;99.90
12720;DHT22;6424;48.520;11.228;2024-02-15T04:35:04;8.20;99.90
12720;DHT22;6424;48.520;11.228;2024-02-15T04:37:50;8.10;99.90
12720;DHT22;6424;48.520;11.228;2024-02-15T04:40:35;8.00;99.90
12720;DHT22;6424;48.520;11.228;2024-02-15T04:43:22;7.90;99.90
12720;DHT22;6424;48.520;11.228;2024-02-15T04:46:07;7.90;99.90
12720;DHT22;6424;48.520;11.228;2024-02-15T04:48:53;7.80;99.90
12720;DHT22;6424;48.520;11.228;2024-02-15T04:51:38;7.80;99.90
12720;DHT22;6424;48.520;11.228;2024-02-15T04:54:25;7.80;99.90
12720;DHT22;6424;48.520;11.228;2024-02-15T04:57:10;7.70;99.90
12720;DHT22;6424;48.520;11.228;2024-02-15T04:59:56;7.70;99.90
12720;DHT22;6424;48.520;11.228;2024-02-15T05:02:40;7.60;99.90
12720;DHT22;6424;48.520;11.228;2024-02-15T05:05:24;7.60;99.90
12720;DHT22;6424;48.520;11.228;2024-02-15T05:08:11;7.50;99.90
12720;DHT22;6424;48.520;11.228;2024-02-15T05:10:55;7.40;99.90
12720;DHT22;6424;48.520;11.228;2024-02-15T05:13:41;7.30;99.90
12720;DHT22;6424;48.520;11.228;2024-02-15T05:16:25;7.20;99.90
12720;DHT22;6424;48.520;11.228;2024-02-15T05:19:10;7.20;99.90
12720;DHT22;6424;48.520;11.228;2024-02-15T05:21:57;7.10;99.90
12720;DHT22;6424;48.520;11.228;2024-02-15T05:24:42;7.10;99.90
12720;DHT22;6424;48.520;11.228;2024-02-15T05:27:26;7.00;99.90
12720;DHT22;6424;48.520;11.228;2024-02-15T05:30:11;7.00;99.90
12720;DHT22;6424;48.520;11.228;2024-02-15T05:32:56;6.90;99.90
12720;DHT22;6424;48.520;11.228;2024-02-15T05:35:40;6.90;99.90
12720;DHT22;6424;48.520;11.228;2024-02-15T05:38:25;6.90;99.90
12720;DHT22;6424;48.520;11.228;2024-02-15T05:41:13;6.80;99.90
12720;DHT22;6424;48.520;11.228;2024-02-15T05:43:58;6.80;99.90
12720;DHT22;6424;48.520;11.228;2024-02-15T05:46:43;6.80;99.90
12720;DHT22;6424;48.520;11.228;2024-02-15T05:49:27;6.70;99.90
12720;DHT22;6424;48.520;11.228;2024-02-15T05:52:12;6.70;99.90
12720;DHT22;6424;48.520;11.228;2024-02-15T05:54:57;6.60;99.90
12720;DHT22;6424;48.520;11.228;2024-02-15T05:57:42;6.50;99.90
12720;DHT22;6424;48.520;11.228;2024-02-15T06:00:27;6.40;99.90
12720;DHT22;6424;48.520;11.228;2024-02-15T06:03:13;6.50;99.90
12720;DHT22;6424;48.520;11.228;2024-02-15T06:05:59;6.40;99.90
12720;DHT22;6424;48.520;11.228;2024-02-15T06:08:46;6.40;99.90
12720;DHT22;6424;48.520;11.228;2024-02-15T06:11:31;6.50;99.90
12720;DHT22;6424;48.520;11.228;2024-02-15T06:14:15;6.40;99.90
12720;DHT22;6424;48.520;11.228;2024-02-15T06:17:00;6.40;99.90
12720;DHT22;6424;48.520;11.228;2024-02-15T06:19:44;6.40;99.90
12720;DHT22;6424;48.520;11.228;2024-02-15T06:22:28;6.40;99.90
12720;DHT22;6424;48.520;11.228;2024-02-15T06:25:15;6.40;99.90
12720;DHT22;6424;48.520;11.228;2024-02-15T06:28:05;6.30;99.90
12720;DHT22;6424;48.520;11.228;2024-02-15T06:30:57;6.40;99.90
12720;DHT22;6424;48.520;11.228;2024-02-15T06:34:00;6.40;99.90
12720;DHT22;6424;48.520;11.228;2024-02-15T06:37:03;6.50;99.90
12720;DHT22;6424;48.520;11.228;2024-02-15T06:40:25;6.50;99.90
12720;DHT22;6424;48.520;11.228;2024-02-15T06:43:10;6.60;99.90
12720;DHT22;6424;48.520;11.228;2024-02-15T06:45:56;6.60;99.90
12720;DHT22;6424;48.520;11.228;2024-02-15T06:48:42;6.70;99.90
12720;DHT22;6424;48.520;11.228;2024-02-15T06:51:30;6.80;99.90
12720;DHT22;6424;48.520;11.228;2024-02-15T06:54:14;6.80;99.90
12720;DHT22;6424;48.520;11.228;2024-02-15T06:56:59;6.80;99.90
12720;DHT22;6424;48.520;11.228;2024-02-15T06:59:46;6.80;99.90
12720;DHT22;6424;48.520;11.228;2024-02-15T07:02:31;6.90;99.90
12720;DHT22;6424;48.520;11.228;2024-02-15T07:05:17;6.90;99.90
12720;DHT22;6424;48.520;11.228;2024-02-15T07:08:02;6.90;99.90
12720;DHT22;6424;48.520;11.228;2024-02-15T07:10:46;7.00;99.90
12720;DHT22;6424;48.520;11.228;2024-02-15T07:13:31;7.00;99.90
12720;DHT22;6424;48.520;11.228;2024-02-15T07:16:16;7.10;99.90
12720;DHT22;6424;48.520;11.228;2024-02-15T07:19:01;7.20;99.90
12720;DHT22;6424;48.520;11.228;2024-02-15T07:21:47;7.30;99.90
12720;DHT22;6424;48.520;11.228;2024-02-15T07:24:32;7.40;99.90
12720;DHT22;6424;48.520;11.228;2024-02-15T07:27:16;7.40;99.90
12720;DHT22;6424;48.520;11.228;2024-02-15T07:30:02;7.50;99.90
12720;DHT22;6424;48.520;11.228;2024-02-15T07:32:49;7.50;99.90
12720;DHT22;6424;48.520;11.228;2024-02-15T07:35:34;7.70;99.90
12720;DHT22;6424;48.520;11.228;2024-02-15T07:38:19;7.90;99.90
12720;DHT22;6424;48.520;11.228;2024-02-15T07:41:03;8.10;99.90
12720;DHT22;6424;48.520;11.228;2024-02-15T07:43:51;8.30;99.90
12720;DHT22;6424;48.520;11.228;2024-02-15T07:46:41;8.50;99.90
12720;DHT22;6424;48.520;11.228;2024-02-15T07:49:25;8.70;99.90
12720;DHT22;6424;48.520;11.228;2024-02-15T07:52:10;8.80;99.90
12720;DHT22;6424;48.520;11.228;2024-02-15T07:54:54;8.90;99.90
12720;DHT22;6424;48.520;11.228;2024-02-15T07:57:38;9.00;99.90
12720;DHT22;6424;48.520;11.228;2024-02-15T08:00:22;9.20;99.90
12720;DHT22;6424;48.520;11.228;2024-02-15T08:03:07;9.40;99.90
12720;DHT22;6424;48.520;11.228;2024-02-15T08:05:51;9.60;99.90
12720;DHT22;6424;48.520;11.228;2024-02-15T08:08:36;9.80;99.90
12720;DHT22;6424;48.520;11.228;2024-02-15T08:11:20;10.00;99.90
12720;DHT22;6424;48.520;11.228;2024-02-15T08:14:04;10.20;99.90
12720;DHT22;6424;48.520;11.228;2024-02-15T08:16:52;10.30;99.90
12720;DHT22;6424;48.520;11.228;2024-02-15T08:19:37;10.40;99.90
12720;DHT22;6424;48.520;11.228;2024-02-15T08:22:23;10.50;99.90
12720;DHT22;6424;48.520;11.228;2024-02-15T08:25:12;10.60;99.90
12720;DHT22;6424;48.520;11.228;2024-02-15T08:27:56;10.70;99.90
12720;DHT22;6424;48.520;11.228;2024-02-15T08:30:40;10.80;99.90
12720;DHT22;6424;48.520;11.228;2024-02-15T08:33:25;11.00;99.90
12720;DHT22;6424;48.520;11.228;2024-02-15T08:36:12;11.10;99.90
12720;DHT22;6424;48.520;11.228;2024-02-15T08:39:00;11.30;99.90
12720;DHT22;6424;48.520;11.228;2024-02-15T08:41:45;11.40;99.90
12720;DHT22;6424;48.520;11.228;2024-02-15T08:44:30;11.50;99.90
12720;DHT22;6424;48.520;11.228;2024-02-15T08:47:14;11.50;99.90
12720;DHT22;6424;48.520;11.228;2024-02-15T08:49:59;11.50;99.90
12720;DHT22;6424;48.520;11.228;2024-02-15T08:52:44;11.50;99.90
12720;DHT22;6424;48.520;11.228;2024-02-15T08:55:29;11.60;99.90
12720;DHT22;6424;48.520;11.228;2024-02-15T08:58:13;11.70;99.90
12720;DHT22;6424;48.520;11.228;2024-02-15T09:00:58;11.70;99.90
12720;DHT22;6424;48.520;11.228;2024-02-15T09:03:42;11.80;99.90
12720;DHT22;6424;48.520;11.228;2024-02-15T09:06:27;11.90;99.90
12720;DHT22;6424;48.520;11.228;2024-02-15T09:09:11;11.90;99.90
12720;DHT22;6424;48.520;11.228;2024-02-15T09:11:55;12.00;99.90
12720;DHT22;6424;48.520;11.228;2024-02-15T09:14:39;12.00;99.90
12720;DHT22;6424;48.520;11.228;2024-02-15T09:17:24;12.10;99.90
12720;DHT22;6424;48.520;11.228;2024-02-15T09:20:11;12.00;99.90
12720;DHT22;6424;48.520;11.228;2024-02-15T09:22:59;12.10;99.90
12720;DHT22;6424;48.520;11.228;2024-02-15T09:25:48;12.10;99.90
12720;DHT22;6424;48.520;11.228;2024-02-15T09:28:34;12.30;99.90
12720;DHT22;6424;48.520;11.228;2024-02-15T09:31:18;12.30;99.90
12720;DHT22;6424;48.520;11.228;2024-02-15T09:34:03;12.40;99.90
12720;DHT22;6424;48.520;11.228;2024-02-15T09:36:51;12.50;99.90
12720;DHT22;6424;48.520;11.228;2024-02-15T09:39:37;12.80;99.90
12720;DHT22;6424;48.520;11.228;2024-02-15T09:42:22;13.40;99.90
12720;DHT22;6424;48.520;11.228;2024-02-15T09:45:08;13.90;99.90
12720;DHT22;6424;48.520;11.228;2024-02-15T09:48:06;14.30;99.90
12720;DHT22;6424;48.520;11.228;2024-02-15T09:50:54;14.30;99.90
12720;DHT22;6424;48.520;11.228;2024-02-15T09:53:40;14.10;99.90
12720;DHT22;6424;48.520;11.228;2024-02-15T09:56:25;13.80;99.90
12720;DHT22;6424;48.520;11.228;2024-02-15T09:59:10;13.60;99.90
12720;DHT22;6424;48.520;11.228;2024-02-15T10:01:58;13.50;99.90
12720;DHT22;6424;48.520;11.228;2024-02-15T10:04:42;13.50;99.90
12720;DHT22;6424;48.520;11.228;2024-02-15T10:07:27;13.50;99.90
12720;DHT22;6424;48.520;11.228;2024-02-15T10:13:06;13.50;99.90
12720;DHT22;6424;48.520;11.228;2024-02-15T10:15:56;13.50;99.90
12720;DHT22;6424;48.520;11.228;2024-02-15T10:18:40;13.60;99.90
12720;DHT22;6424;48.520;11.228;2024-02-15T10:21:26;13.50;99.90
12720;DHT22;6424;48.520;11.228;2024-02-15T10:24:18;13.60;99.90
12720;DHT22;6424;48.520;11.228;2024-02-15T10:27:04;13.60;99.90
12720;DHT22;6424;48.520;11.228;2024-02-15T10:29:50;13.70;99.90
12720;DHT22;6424;48.520;11.228;2024-02-15T10:32:37;13.70;99.90
12720;DHT22;6424;48.520;11.228;2024-02-15T10:35:22;13.80;99.90
12720;DHT22;6424;48.520;11.228;2024-02-15T10:38:09;13.80;99.90
12720;DHT22;6424;48.520;11.228;2024-02-15T10:41:03;13.80;99.90
12720;DHT22;6424;48.520;11.228;2024-02-15T10:43:49;13.90;99.90
12720;DHT22;6424;48.520;11.228;2024-02-15T10:46:33;14.00;99.90
12720;DHT22;6424;48.520;11.228;2024-02-15T10:49:21;14.00;99.90
12720;DHT22;6424;48.520;11.228;2024-02-15T10:52:06;14.10;99.90
12720;DHT22;6424;48.520;11.228;2024-02-15T10:55:03;14.00;99.90
12720;DHT22;6424;48.520;11.228;2024-02-15T10:57:49;14.00;99.90
12720;DHT22;6424;48.520;11.228;2024-02-15T11:00:35;14.00;99.90
12720;DHT22;6424;48.520;11.228;2024-02-15T11:03:27;14.00;99.90
12720;DHT22;6424;48.520;11.228;2024-02-15T11:06:15;14.00;99.90
12720;DHT22;6424;48.520;11.228;2024-02-15T11:09:01;14.00;99.90
12720;DHT22;6424;48.520;11.228;2024-02-15T11:11:46;14.00;99.90
12720;DHT22;6424;48.520;11.228;2024-02-15T11:14:35;14.10;99.90
12720;DHT22;6424;48.520;11.228;2024-02-15T11:23:25;14.10;99.90
12720;DHT22;6424;48.520;11.228;2024-02-15T11:26:43;14.10;99.90
12720;DHT22;6424;48.520;11.228;2024-02-15T11:29:49;14.10;99.90
12720;DHT22;6424;48.520;11.228;2024-02-15T11:35:31;14.10;99.90
12720;DHT22;6424;48.520;11.228;2024-02-15T11:38:27;14.10;99.90
12720;DHT22;6424;48.520;11.228;2024-02-15T11:41:18;14.10;99.90
12720;DHT22;6424;48.520;11.228;2024-02-15T11:44:03;13.90;99.90
12720;DHT22;6424;48.520;11.228;2024-02-15T11:46:52;13.90;99.90
12720;DHT22;6424;48.520;11.228;2024-02-15T11:49:39;13.90;99.90
12720;DHT22;6424;48.520;11.228;2024-02-15T11:52:23;13.90;99.90
12720;DHT22;6424;48.520;11.228;2024-02-15T11:55:08;13.90;99.90
12720;DHT22;6424;48.520;11.228;2024-02-15T11:58:03;13.90;99.90
12720;DHT22;6424;48.520;11.228;2024-02-15T12:00:51;14.00;99.90
12720;DHT22;6424;48.520;11.228;2024-02-15T12:03:55;14.00;99.90
12720;DHT22;6424;48.520;11.228;2024-02-15T12:06:59;14.10;99.90
12720;DHT22;6424;48.520;11.228;2024-02-15T12:10:02;14.10;99.90
12720;DHT22;6424;48.520;11.228;2024-02-15T12:13:05;14.20;99.90
12720;DHT22;6424;48.520;11.228;2024-02-15T12:16:08;14.20;99.90
12720;DHT22;6424;48.520;11.228;2024-02-15T12:19:11;14.20;99.90
12720;DHT22;6424;48.520;11.228;2024-02-15T12:21:56;14.20;99.90
12720;DHT22;6424;48.520;11.228;2024-02-15T12:24:42;14.20;99.90
12720;DHT22;6424;48.520;11.228;2024-02-15T12:27:27;14.20;99.90
12720;DHT22;6424;48.520;11.228;2024-02-15T12:30:18;14.10;99.90
12720;DHT22;6424;48.520;11.228;2024-02-15T12:33:10;14.10;99.90
12720;DHT22;6424;48.520;11.228;2024-02-15T12:36:07;14.10;99.90
12720;DHT22;6424;48.520;11.228;2024-02-15T12:39:05;14.20;99.90
12720;DHT22;6424;48.520;11.228;2024-02-15T12:41:54;14.30;99.90
12720;DHT22;6424;48.520;11.228;2024-02-15T12:44:46;14.40;99.90
12720;DHT22;6424;48.520;11.228;2024-02-15T12:47:31;14.40;99.90
12720;DHT22;6424;48.520;11.228;2024-02-15T12:50:22;14.60;99.90
12720;DHT22;6424;48.520;11.228;2024-02-15T12:53:07;14.60;99.90
12720;DHT22;6424;48.520;11.228;2024-02-15T12:55:55;14.70;99.90
12720;DHT22;6424;48.520;11.228;2024-02-15T12:58:40;14.80;99.90
12720;DHT22;6424;48.520;11.228;2024-02-15T13:01:24;14.80;99.90
12720;DHT22;6424;48.520;11.228;2024-02-15T13:04:23;14.80;99.90
12720;DHT22;6424;48.520;11.228;2024-02-15T13:07:09;14.90;99.90
12720;DHT22;6424;48.520;11.228;2024-02-15T13:09:54;14.90;99.90
12720;DHT22;6424;48.520;11.228;2024-02-15T13:12:39;14.90;99.90
12720;DHT22;6424;48.520;11.228;2024-02-15T13:15:25;14.90;99.90
12720;DHT22;6424;48.520;11.228;2024-02-15T13:18:16;14.90;99.90
12720;DHT22;6424;48.520;11.228;2024-02-15T13:21:01;14.90;99.90
12720;DHT22;6424;48.520;11.228;2024-02-15T13:23:46;14.90;99.90
12720;DHT22;6424;48.520;11.228;2024-02-15T13:26:32;14.80;99.90
12720;DHT22;6424;48.520;11.228;2024-02-15T13:29:18;14.70;99.90
12720;DHT22;6424;48.520;11.228;2024-02-15T13:32:03;14.70;99.90
12720;DHT22;6424;48.520;11.228;2024-02-15T13:34:48;14.70;99.90
12720;DHT22;6424;48.520;11.228;2024-02-15T13:37:35;14.70;99.90
12720;DHT22;6424;48.520;11.228;2024-02-15T13:40:29;14.70;99.90
12720;DHT22;6424;48.520;11.228;2024-02-15T13:43:15;14.70;99.90
12720;DHT22;6424;48.520;11.228;2024-02-15T13:46:01;14.70;99.90
12720;DHT22;6424;48.520;11.228;2024-02-15T13:48:45;14.80;99.90
12720;DHT22;6424;48.520;11.228;2024-02-15T13:51:29;14.70;99.90
12720;DHT22;6424;48.520;11.228;2024-02-15T13:54:14;14.70;99.90
12720;DHT22;6424;48.520;11.228;2024-02-15T13:57:00;14.70;99.90
12720;DHT22;6424;48.520;11.228;2024-02-15T13:59:45;14.70;99.90
12720;DHT22;6424;48.520;11.228;2024-02-15T14:02:29;14.70;99.90
12720;DHT22;6424;48.520;11.228;2024-02-15T14:05:14;14.70;99.90
12720;DHT22;6424;48.520;11.228;2024-02-15T14:08:03;14.70;99.90
12720;DHT22;6424;48.520;11.228;2024-02-15T14:10:49;14.70;99.90
12720;DHT22;6424;48.520;11.228;2024-02-15T14:13:33;14.70;99.90
12720;DHT22;6424;48.520;11.228;2024-02-15T14:16:18;14.70;99.90
12720;DHT22;6424;48.520;11.228;2024-02-15T14:19:02;14.60;99.90
12720;DHT22;6424;48.520;11.228;2024-02-15T14:21:47;14.60;99.90
12720;DHT22;6424;48.520;11.228;2024-02-15T14:24:32;14.50;99.90
12720;DHT22;6424;48.520;11.228;2024-02-15T14:27:16;14.50;99.90
12720;DHT22;6424;48.520;11.228;2024-02-15T14:30:01;14.60;99.90
12720;DHT22;6424;48.520;11.228;2024-02-15T14:33:04;14.60;99.90
12720;DHT22;6424;48.520;11.228;2024-02-15T14:35:52;14.60;99.90
12720;DHT22;6424;48.520;11.228;2024-02-15T14:38:40;14.60;99.90
12720;DHT22;6424;48.520;11.228;2024-02-15T14:41:24;14.60;99.90
12720;DHT22;6424;48.520;11.228;2024-02-15T14:44:08;14.50;99.90
12720;DHT22;6424;48.520;11.228;2024-02-15T14:46:53;14.40;99.90
12720;DHT22;6424;48.520;11.228;2024-02-15T14:49:38;14.50;99.90
12720;DHT22;6424;48.520;11.228;2024-02-15T14:52:23;14.40;99.90
12720;DHT22;6424;48.520;11.228;2024-02-15T14:55:07;14.40;99.90
12720;DHT22;6424;48.520;11.228;2024-02-15T14:57:52;14.40;99.90
12720;DHT22;6424;48.520;11.228;2024-02-15T15:00:36;14.40;99.90
12720;DHT22;6424;48.520;11.228;2024-02-15T15:03:21;14.40;99.90
12720;DHT22;6424;48.520;11.228;2024-02-15T15:06:07;14.30;99.90
12720;DHT22;6424;48.520;11.228;2024-02-15T15:09:11;14.20;99.90
12720;DHT22;6424;48.520;11.228;2024-02-15T15:12:14;14.20;99.90
12720;DHT22;6424;48.520;11.228;2024-02-15T15:15:17;14.10;99.90
12720;DHT22;6424;48.520;11.228;2024-02-15T15:18:03;14.00;99.90
12720;DHT22;6424;48.520;11.228;2024-02-15T15:20:48;14.00;99.90
12720;DHT22;6424;48.520;11.228;2024-02-15T15:23:33;13.90;99.90
12720;DHT22;6424;48.520;11.228;2024-02-15T15:26:19;13.90;99.90
12720;DHT22;6424;48.520;11.228;2024-02-15T15:29:04;13.80;99.90
12720;DHT22;6424;48.520;11.228;2024-02-15T15:31:49;13.70;99.90
12720;DHT22;6424;48.520;11.228;2024-02-15T15:34:33;13.70;99.90
12720;DHT22;6424;48.520;11.228;2024-02-15T15:37:18;13.60;99.90
12720;DHT22;6424;48.520;11.228;2024-02-15T15:40:07;13.50;99.90
12720;DHT22;6424;48.520;11.228;2024-02-15T15:42:52;13.40;99.90
12720;DHT22;6424;48.520;11.228;2024-02-15T15:45:38;13.40;99.90
12720;DHT22;6424;48.520;11.228;2024-02-15T15:48:22;13.30;99.90
12720;DHT22;6424;48.520;11.228;2024-02-15T15:51:07;13.20;99.90
12720;DHT22;6424;48.520;11.228;2024-02-15T15:53:53;13.10;99.90
12720;DHT22;6424;48.520;11.228;2024-02-15T15:56:38;13.00;99.90
12720;DHT22;6424;48.520;11.228;2024-02-15T15:59:23;12.90;99.90
12720;DHT22;6424;48.520;11.228;2024-02-15T16:02:07;12.80;99.90
12720;DHT22;6424;48.520;11.228;2024-02-15T16:04:51;12.70;99.90
12720;DHT22;6424;48.520;11.228;2024-02-15T16:07:41;12.60;99.90
12720;DHT22;6424;48.520;11.228;2024-02-15T16:10:25;12.40;99.90
12720;DHT22;6424;48.520;11.228;2024-02-15T16:13:12;12.30;99.90
12720;DHT22;6424;48.520;11.228;2024-02-15T16:15:56;12.10;99.90
12720;DHT22;6424;48.520;11.228;2024-02-15T16:18:41;12.00;99.90
12720;DHT22;6424;48.520;11.228;2024-02-15T16:21:26;11.90;99.90
12720;DHT22;6424;48.520;11.228;2024-02-15T16:24:11;11.80;99.90
12720;DHT22;6424;48.520;11.228;2024-02-15T16:26:58;11.70;99.90
12720;DHT22;6424;48.520;11.228;2024-02-15T16:29:43;11.60;99.90
12720;DHT22;6424;48.520;11.228;2024-02-15T16:32:28;11.50;99.90
12720;DHT22;6424;48.520;11.228;2024-02-15T16:35:12;11.40;99.90
12720;DHT22;6424;48.520;11.228;2024-02-15T16:37:59;11.40;99.90
12720;DHT22;6424;48.520;11.228;2024-02-15T16:40:43;11.40;99.90
12720;DHT22;6424;48.520;11.228;2024-02-15T16:43:27;11.30;99.90
12720;DHT22;6424;48.520;11.228;2024-02-15T16:46:11;11.20;99.90
12720;DHT22;6424;48.520;11.228;2024-02-15T16:48:57;11.20;99.90
12720;DHT22;6424;48.520;11.228;2024-02-15T16:51:41;11.10;99.90
12720;DHT22;6424;48.520;11.228;2024-02-15T16:54:26;11.10;99.90
12720;DHT22;6424;48.520;11.228;2024-02-15T16:57:11;11.00;99.90
12720;DHT22;6424;48.520;11.228;2024-02-15T16:59:56;11.00;99.90
12720;DHT22;6424;48.520;11.228;2024-02-15T17:02:41;10.90;99.90
12720;DHT22;6424;48.520;11.228;2024-02-15T17:05:27;10.80;99.90
12720;DHT22;6424;48.520;11.228;2024-02-15T17:08:12;10.80;99.90
12720;DHT22;6424;48.520;11.228;2024-02-15T17:10:56;10.80;99.90
12720;DHT22;6424;48.520;11.228;2024-02-15T17:13:40;10.90;99.90
12720;DHT22;6424;48.520;11.228;2024-02-15T17:16:29;10.90;99.90
12720;DHT22;6424;48.520;11.228;2024-02-15T17:19:14;10.80;99.90
12720;DHT22;6424;48.520;11.228;2024-02-15T17:21:59;10.80;99.90
12720;DHT22;6424;48.520;11.228;2024-02-15T17:24:45;10.80;99.90
12720;DHT22;6424;48.520;11.228;2024-02-15T17:27:29;10.60;99.90
12720;DHT22;6424;48.520;11.228;2024-02-15T17:30:14;10.60;99.90
12720;DHT22;6424;48.520;11.228;2024-02-15T17:32:58;10.50;99.90
12720;DHT22;6424;48.520;11.228;2024-02-15T17:35:42;10.60;99.90
12720;DHT22;6424;48.520;11.228;2024-02-15T17:38:26;10.70;99.90
12720;DHT22;6424;48.520;11.228;2024-02-15T17:41:12;10.80;99.90
12720;DHT22;6424;48.520;11.228;2024-02-15T17:43:56;10.90;99.90
12720;DHT22;6424;48.520;11.228;2024-02-15T17:46:43;10.90;99.90
12720;DHT22;6424;48.520;11.228;2024-02-15T17:49:28;11.00;99.90
12720;DHT22;6424;48.520;11.228;2024-02-15T17:52:12;11.00;99.90